sensor_id;sensor_type;location;lat;lon;timestamp;P1;durP1;ratioP1;P2;durP2;ratioP2
70148;SDS011;57514;52.164;5.282;2024-01-30T00:02:04;17.23;;;8.80;;
70148;SDS011;57514;52.164;5.282;2024-01-30T00:04:31;14.18;;;6.50;;
70148;SDS011;57514;52.164;5.282;2024-01-30T00:06:58;16.02;;;8.27;;
70148;SDS011;57514;52.164;5.282;2024-01-30T00:09:26;11.52;;;6.03;;
70148;SDS011;57514;52.164;5.282;2024-01-30T00:11:53;11.90;;;5.85;;
70148;SDS011;57514;52.164;5.282;2024-01-30T00:14:21;15.63;;;7.72;;
70148;SDS011;57514;52.164;5.282;2024-01-30T00:16:48;14.77;;;7.35;;
70148;SDS011;57514;52.164;5.282;2024-01-30T00:19:15;17.23;;;8.13;;
70148;SDS011;57514;52.164;5.282;2024-01-30T00:21:42;13.40;;;6.78;;
70148;SDS011;57514;52.164;5.282;2024-01-30T00:24:10;11.48;;;5.95;;
70148;SDS011;57514;52.164;5.282;2024-01-30T00:26:37;16.73;;;7.80;;
70148;SDS011;57514;52.164;5.282;2024-01-30T00:29:04;15.73;;;8.57;;
70148;SDS011;57514;52.164;5.282;2024-01-30T00:31:31;13.45;;;6.28;;
70148;SDS011;57514;52.164;5.282;2024-01-30T00:33:59;16.95;;;7.70;;
70148;SDS011;57514;52.164;5.282;2024-01-30T00:36:26;10.63;;;4.95;;
70148;SDS011;57514;52.164;5.282;2024-01-30T00:38:56;17.27;;;8.00;;
70148;SDS011;57514;52.164;5.282;2024-01-30T00:41:24;15.23;;;7.38;;
70148;SDS011;57514;52.164;5.282;2024-01-30T00:43:51;14.13;;;7.22;;
70148;SDS011;57514;52.164;5.282;2024-01-30T00:46:18;10.32;;;4.95;;
70148;SDS011;57514;52.164;5.282;2024-01-30T00:48:45;12.35;;;5.75;;
70148;SDS011;57514;52.164;5.282;2024-01-30T00:51:13;15.38;;;7.07;;
70148;SDS011;57514;52.164;5.282;2024-01-30T00:53:40;18.60;;;8.60;;
70148;SDS011;57514;52.164;5.282;2024-01-30T00:56:08;12.15;;;4.82;;
70148;SDS011;57514;52.164;5.282;2024-01-30T00:58:35;13.88;;;6.90;;
70148;SDS011;57514;52.164;5.282;2024-01-30T01:01:02;15.25;;;7.63;;
70148;SDS011;57514;52.164;5.282;2024-01-30T01:03:30;13.80;;;6.53;;
70148;SDS011;57514;52.164;5.282;2024-01-30T01:05:57;15.80;;;8.75;;
70148;SDS011;57514;52.164;5.282;2024-01-30T01:08:24;17.05;;;8.30;;
70148;SDS011;57514;52.164;5.282;2024-01-30T01:10:51;16.33;;;8.50;;
70148;SDS011;57514;52.164;5.282;2024-01-30T01:13:19;15.48;;;7.80;;
70148;SDS011;57514;52.164;5.282;2024-01-30T01:15:46;15.27;;;7.43;;
70148;SDS011;57514;52.164;5.282;2024-01-30T01:18:13;12.05;;;5.68;;
70148;SDS011;57514;52.164;5.282;2024-01-30T01:20:41;14.45;;;7.30;;
70148;SDS011;57514;52.164;5.282;2024-01-30T01:23:08;14.27;;;7.63;;
70148;SDS011;57514;52.164;5.282;2024-01-30T01:25:35;14.35;;;7.00;;
70148;SDS011;57514;52.164;5.282;2024-01-30T01:28:02;12.35;;;5.68;;
70148;SDS011;57514;52.164;5.282;2024-01-30T01:30:30;13.95;;;6.40;;
70148;SDS011;57514;52.164;5.282;2024-01-30T01:32:57;14.93;;;8.25;;
70148;SDS011;57514;52.164;5.282;2024-01-30T01:35:27;14.35;;;6.78;;
70148;SDS011;57514;52.164;5.282;2024-01-30T01:37:54;13.93;;;7.28;;
70148;SDS011;57514;52.164;5.282;2024-01-30T01:40:22;14.05;;;6.95;;
70148;SDS011;57514;52.164;5.282;2024-01-30T01:42:50;15.25;;;7.20;;
70148;SDS011;57514;52.164;5.282;2024-01-30T01:45:21;9.82;;;5.03;;
70148;SDS011;57514;52.164;5.282;2024-01-30T01:47:50;12.15;;;5.72;;
70148;SDS011;57514;52.164;5.282;2024-01-30T01:50:18;14.63;;;7.65;;
70148;SDS011;57514;52.164;5.282;2024-01-30T01:52:49;12.55;;;6.25;;
70148;SDS011;57514;52.164;5.282;2024-01-30T01:55:17;14.55;;;7.10;;
70148;SDS011;57514;52.164;5.282;2024-01-30T01:57:47;14.15;;;5.95;;
70148;SDS011;57514;52.164;5.282;2024-01-30T02:00:15;13.88;;;6.07;;
70148;SDS011;57514;52.164;5.282;2024-01-30T02:02:42;14.40;;;7.35;;
70148;SDS011;57514;52.164;5.282;2024-01-30T02:05:10;15.13;;;7.53;;
70148;SDS011;57514;52.164;5.282;2024-01-30T02:07:38;16.48;;;8.30;;
70148;SDS011;57514;52.164;5.282;2024-01-30T02:10:07;16.90;;;8.10;;
70148;SDS011;57514;52.164;5.282;2024-01-30T02:12:35;15.95;;;7.88;;
70148;SDS011;57514;52.164;5.282;2024-01-30T02:15:03;15.45;;;7.57;;
70148;SDS011;57514;52.164;5.282;2024-01-30T02:17:31;15.07;;;7.53;;
70148;SDS011;57514;52.164;5.282;2024-01-30T02:19:59;15.13;;;6.70;;
70148;SDS011;57514;52.164;5.282;2024-01-30T02:22:26;15.63;;;7.72;;
70148;SDS011;57514;52.164;5.282;2024-01-30T02:24:54;14.82;;;7.60;;
70148;SDS011;57514;52.164;5.282;2024-01-30T02:27:21;15.77;;;8.15;;
70148;SDS011;57514;52.164;5.282;2024-01-30T02:29:48;14.27;;;7.05;;
70148;SDS011;57514;52.164;5.282;2024-01-30T02:32:15;13.95;;;5.95;;
70148;SDS011;57514;52.164;5.282;2024-01-30T02:34:43;13.25;;;6.25;;
70148;SDS011;57514;52.164;5.282;2024-01-30T02:37:10;15.18;;;7.93;;
70148;SDS011;57514;52.164;5.282;2024-01-30T02:39:37;13.38;;;5.68;;
70148;SDS011;57514;52.164;5.282;2024-01-30T02:42:05;13.38;;;6.38;;
70148;SDS011;57514;52.164;5.282;2024-01-30T02:44:32;15.43;;;7.03;;
70148;SDS011;57514;52.164;5.282;2024-01-30T02:46:59;16.25;;;6.65;;
70148;SDS011;57514;52.164;5.282;2024-01-30T02:49:26;15.55;;;7.10;;
70148;SDS011;57514;52.164;5.282;2024-01-30T02:51:54;15.85;;;6.97;;
70148;SDS011;57514;52.164;5.282;2024-01-30T02:54:23;15.65;;;7.10;;
70148;SDS011;57514;52.164;5.282;2024-01-30T02:56:50;12.27;;;5.57;;
70148;SDS011;57514;52.164;5.282;2024-01-30T02:59:17;14.60;;;7.03;;
70148;SDS011;57514;52.164;5.282;2024-01-30T03:01:45;11.98;;;5.63;;
70148;SDS011;57514;52.164;5.282;2024-01-30T03:04:13;15.73;;;7.90;;
70148;SDS011;57514;52.164;5.282;2024-01-30T03:06:44;13.95;;;6.53;;
70148;SDS011;57514;52.164;5.282;2024-01-30T03:09:13;14.30;;;6.93;;
70148;SDS011;57514;52.164;5.282;2024-01-30T03:11:40;12.80;;;6.05;;
70148;SDS011;57514;52.164;5.282;2024-01-30T03:14:07;14.38;;;6.65;;
70148;SDS011;57514;52.164;5.282;2024-01-30T03:16:37;14.30;;;7.32;;
70148;SDS011;57514;52.164;5.282;2024-01-30T03:19:05;14.02;;;7.35;;
70148;SDS011;57514;52.164;5.282;2024-01-30T03:21:34;14.32;;;7.05;;
70148;SDS011;57514;52.164;5.282;2024-01-30T03:24:01;13.35;;;6.35;;
70148;SDS011;57514;52.164;5.282;2024-01-30T03:26:29;14.35;;;7.10;;
70148;SDS011;57514;52.164;5.282;2024-01-30T03:28:56;11.10;;;5.07;;
70148;SDS011;57514;52.164;5.282;2024-01-30T03:31:23;17.23;;;8.05;;
70148;SDS011;57514;52.164;5.282;2024-01-30T03:33:51;14.85;;;6.70;;
70148;SDS011;57514;52.164;5.282;2024-01-30T03:36:18;14.73;;;6.35;;
70148;SDS011;57514;52.164;5.282;2024-01-30T03:38:45;16.90;;;7.22;;
70148;SDS011;57514;52.164;5.282;2024-01-30T03:41:13;17.63;;;8.15;;
70148;SDS011;57514;52.164;5.282;2024-01-30T03:43:40;12.02;;;5.30;;
70148;SDS011;57514;52.164;5.282;2024-01-30T03:46:07;14.43;;;6.20;;
70148;SDS011;57514;52.164;5.282;2024-01-30T03:48:34;18.13;;;8.95;;
70148;SDS011;57514;52.164;5.282;2024-01-30T03:51:02;16.27;;;6.65;;
70148;SDS011;57514;52.164;5.282;2024-01-30T03:53:29;21.40;;;8.20;;
70148;SDS011;57514;52.164;5.282;2024-01-30T03:55:56;17.13;;;8.55;;
70148;SDS011;57514;52.164;5.282;2024-01-30T03:58:24;16.60;;;7.90;;
70148;SDS011;57514;52.164;5.282;2024-01-30T04:00:51;16.20;;;8.57;;
70148;SDS011;57514;52.164;5.282;2024-01-30T04:03:18;16.23;;;7.80;;
70148;SDS011;57514;52.164;5.282;2024-01-30T04:05:46;16.70;;;7.90;;
70148;SDS011;57514;52.164;5.282;2024-01-30T04:08:13;15.20;;;7.88;;
70148;SDS011;57514;52.164;5.282;2024-01-30T04:10:40;12.80;;;6.07;;
70148;SDS011;57514;52.164;5.282;2024-01-30T04:13:07;16.80;;;8.38;;
70148;SDS011;57514;52.164;5.282;2024-01-30T04:15:38;15.32;;;7.85;;
70148;SDS011;57514;52.164;5.282;2024-01-30T04:18:05;17.98;;;8.45;;
70148;SDS011;57514;52.164;5.282;2024-01-30T04:20:32;15.50;;;6.88;;
70148;SDS011;57514;52.164;5.282;2024-01-30T04:23:00;15.75;;;8.10;;
70148;SDS011;57514;52.164;5.282;2024-01-30T04:25:27;15.30;;;8.02;;
70148;SDS011;57514;52.164;5.282;2024-01-30T04:27:55;16.85;;;7.32;;
70148;SDS011;57514;52.164;5.282;2024-01-30T04:30:22;14.63;;;7.22;;
70148;SDS011;57514;52.164;5.282;2024-01-30T04:32:49;17.83;;;8.27;;
70148;SDS011;57514;52.164;5.282;2024-01-30T04:35:16;18.30;;;7.38;;
70148;SDS011;57514;52.164;5.282;2024-01-30T04:37:44;14.90;;;7.30;;
70148;SDS011;57514;52.164;5.282;2024-01-30T04:40:11;14.38;;;6.35;;
70148;SDS011;57514;52.164;5.282;2024-01-30T04:42:39;12.88;;;6.22;;
70148;SDS011;57514;52.164;5.282;2024-01-30T04:45:06;14.10;;;6.05;;
70148;SDS011;57514;52.164;5.282;2024-01-30T04:47:34;16.75;;;6.95;;
70148;SDS011;57514;52.164;5.282;2024-01-30T04:50:01;15.30;;;7.35;;
70148;SDS011;57514;52.164;5.282;2024-01-30T04:52:31;13.40;;;6.20;;
70148;SDS011;57514;52.164;5.282;2024-01-30T04:54:58;13.70;;;6.10;;
70148;SDS011;57514;52.164;5.282;2024-01-30T04:57:26;15.27;;;7.05;;
70148;SDS011;57514;52.164;5.282;2024-01-30T04:59:53;16.15;;;7.38;;
70148;SDS011;57514;52.164;5.282;2024-01-30T05:02:21;15.77;;;7.00;;
70148;SDS011;57514;52.164;5.282;2024-01-30T05:04:48;14.23;;;7.45;;
70148;SDS011;57514;52.164;5.282;2024-01-30T05:07:16;12.65;;;5.57;;
70148;SDS011;57514;52.164;5.282;2024-01-30T05:09:43;15.48;;;7.05;;
70148;SDS011;57514;52.164;5.282;2024-01-30T05:12:10;13.82;;;6.47;;
70148;SDS011;57514;52.164;5.282;2024-01-30T05:14:38;12.35;;;5.53;;
70148;SDS011;57514;52.164;5.282;2024-01-30T05:17:05;12.88;;;6.50;;
70148;SDS011;57514;52.164;5.282;2024-01-30T05:19:34;12.65;;;6.40;;
70148;SDS011;57514;52.164;5.282;2024-01-30T05:22:01;12.20;;;4.88;;
70148;SDS011;57514;52.164;5.282;2024-01-30T05:24:28;14.85;;;6.82;;
70148;SDS011;57514;52.164;5.282;2024-01-30T05:26:56;12.60;;;6.00;;
70148;SDS011;57514;52.164;5.282;2024-01-30T05:29:23;13.90;;;7.85;;
70148;SDS011;57514;52.164;5.282;2024-01-30T05:31:51;13.32;;;5.75;;
70148;SDS011;57514;52.164;5.282;2024-01-30T05:34:18;15.88;;;7.00;;
70148;SDS011;57514;52.164;5.282;2024-01-30T05:36:45;13.07;;;7.15;;
70148;SDS011;57514;52.164;5.282;2024-01-30T05:39:13;15.15;;;6.07;;
70148;SDS011;57514;52.164;5.282;2024-01-30T05:41:40;11.43;;;5.22;;
70148;SDS011;57514;52.164;5.282;2024-01-30T05:44:08;14.25;;;7.00;;
70148;SDS011;57514;52.164;5.282;2024-01-30T05:46:35;12.50;;;5.68;;
70148;SDS011;57514;52.164;5.282;2024-01-30T05:49:02;13.80;;;6.20;;
70148;SDS011;57514;52.164;5.282;2024-01-30T05:51:30;11.85;;;5.25;;
70148;SDS011;57514;52.164;5.282;2024-01-30T05:53:57;11.40;;;5.47;;
70148;SDS011;57514;52.164;5.282;2024-01-30T05:56:24;19.95;;;6.65;;
70148;SDS011;57514;52.164;5.282;2024-01-30T05:58:52;13.90;;;6.55;;
70148;SDS011;57514;52.164;5.282;2024-01-30T06:01:19;11.95;;;5.63;;
70148;SDS011;57514;52.164;5.282;2024-01-30T06:03:46;14.13;;;6.05;;
70148;SDS011;57514;52.164;5.282;2024-01-30T06:06:14;14.75;;;7.53;;
70148;SDS011;57514;52.164;5.282;2024-01-30T06:08:41;14.15;;;6.50;;
70148;SDS011;57514;52.164;5.282;2024-01-30T06:11:10;13.35;;;6.30;;
70148;SDS011;57514;52.164;5.282;2024-01-30T06:13:38;13.63;;;6.65;;
70148;SDS011;57514;52.164;5.282;2024-01-30T06:16:08;14.27;;;6.28;;
70148;SDS011;57514;52.164;5.282;2024-01-30T06:18:35;13.32;;;5.93;;
70148;SDS011;57514;52.164;5.282;2024-01-30T06:21:04;9.13;;;4.35;;
70148;SDS011;57514;52.164;5.282;2024-01-30T06:23:31;11.75;;;5.95;;
70148;SDS011;57514;52.164;5.282;2024-01-30T06:25:58;12.65;;;4.88;;
70148;SDS011;57514;52.164;5.282;2024-01-30T06:28:25;13.02;;;5.65;;
70148;SDS011;57514;52.164;5.282;2024-01-30T06:30:53;13.93;;;5.95;;
70148;SDS011;57514;52.164;5.282;2024-01-30T06:33:20;13.25;;;6.25;;
70148;SDS011;57514;52.164;5.282;2024-01-30T06:35:47;14.20;;;6.15;;
70148;SDS011;57514;52.164;5.282;2024-01-30T06:38:14;10.93;;;5.45;;
70148;SDS011;57514;52.164;5.282;2024-01-30T06:40:42;14.57;;;6.28;;
70148;SDS011;57514;52.164;5.282;2024-01-30T06:43:09;14.10;;;5.63;;
70148;SDS011;57514;52.164;5.282;2024-01-30T06:45:37;10.93;;;4.57;;
70148;SDS011;57514;52.164;5.282;2024-01-30T06:48:04;14.52;;;6.28;;
70148;SDS011;57514;52.164;5.282;2024-01-30T06:50:32;9.25;;;4.45;;
70148;SDS011;57514;52.164;5.282;2024-01-30T06:52:59;12.98;;;6.60;;
70148;SDS011;57514;52.164;5.282;2024-01-30T06:55:27;10.02;;;5.53;;
70148;SDS011;57514;52.164;5.282;2024-01-30T06:57:54;13.88;;;6.28;;
70148;SDS011;57514;52.164;5.282;2024-01-30T07:00:21;11.70;;;5.05;;
70148;SDS011;57514;52.164;5.282;2024-01-30T07:02:50;12.23;;;5.47;;
70148;SDS011;57514;52.164;5.282;2024-01-30T07:05:17;13.40;;;7.07;;
70148;SDS011;57514;52.164;5.282;2024-01-30T07:07:44;8.30;;;4.00;;
70148;SDS011;57514;52.164;5.282;2024-01-30T07:10:12;12.93;;;5.93;;
70148;SDS011;57514;52.164;5.282;2024-01-30T07:12:39;17.55;;;8.48;;
70148;SDS011;57514;52.164;5.282;2024-01-30T07:15:06;15.65;;;7.70;;
70148;SDS011;57514;52.164;5.282;2024-01-30T07:17:36;14.73;;;6.03;;
70148;SDS011;57514;52.164;5.282;2024-01-30T07:20:04;13.05;;;6.28;;
70148;SDS011;57514;52.164;5.282;2024-01-30T07:22:32;15.00;;;7.15;;
70148;SDS011;57514;52.164;5.282;2024-01-30T07:25:00;10.70;;;4.78;;
70148;SDS011;57514;52.164;5.282;2024-01-30T07:27:27;11.98;;;4.68;;
70148;SDS011;57514;52.164;5.282;2024-01-30T07:29:54;12.32;;;5.82;;
70148;SDS011;57514;52.164;5.282;2024-01-30T07:32:22;11.20;;;4.90;;
70148;SDS011;57514;52.164;5.282;2024-01-30T07:34:50;12.63;;;5.75;;
70148;SDS011;57514;52.164;5.282;2024-01-30T07:37:32;11.50;;;5.60;;
70148;SDS011;57514;52.164;5.282;2024-01-30T07:40:01;10.40;;;5.13;;
70148;SDS011;57514;52.164;5.282;2024-01-30T07:42:29;9.85;;;4.47;;
70148;SDS011;57514;52.164;5.282;2024-01-30T07:44:56;11.07;;;5.07;;
70148;SDS011;57514;52.164;5.282;2024-01-30T07:47:24;16.10;;;6.57;;
70148;SDS011;57514;52.164;5.282;2024-01-30T07:49:51;10.95;;;4.78;;
70148;SDS011;57514;52.164;5.282;2024-01-30T07:52:20;10.48;;;4.80;;
70148;SDS011;57514;52.164;5.282;2024-01-30T07:54:48;17.35;;;6.00;;
70148;SDS011;57514;52.164;5.282;2024-01-30T07:57:17;12.07;;;4.47;;
70148;SDS011;57514;52.164;5.282;2024-01-30T07:59:44;9.32;;;3.88;;
70148;SDS011;57514;52.164;5.282;2024-01-30T08:02:12;9.93;;;4.93;;
70148;SDS011;57514;52.164;5.282;2024-01-30T08:04:40;13.45;;;6.05;;
70148;SDS011;57514;52.164;5.282;2024-01-30T08:07:07;10.65;;;4.80;;
70148;SDS011;57514;52.164;5.282;2024-01-30T08:09:34;15.73;;;6.70;;
70148;SDS011;57514;52.164;5.282;2024-01-30T08:12:02;11.27;;;4.15;;
70148;SDS011;57514;52.164;5.282;2024-01-30T08:14:29;13.32;;;5.68;;
70148;SDS011;57514;52.164;5.282;2024-01-30T08:16:56;14.25;;;5.00;;
70148;SDS011;57514;52.164;5.282;2024-01-30T08:19:24;12.85;;;5.93;;
70148;SDS011;57514;52.164;5.282;2024-01-30T08:21:51;11.32;;;4.00;;
70148;SDS011;57514;52.164;5.282;2024-01-30T08:24:18;10.80;;;4.72;;
70148;SDS011;57514;52.164;5.282;2024-01-30T08:26:46;10.02;;;4.70;;
70148;SDS011;57514;52.164;5.282;2024-01-30T08:29:14;13.40;;;5.25;;
70148;SDS011;57514;52.164;5.282;2024-01-30T08:31:41;13.82;;;5.22;;
70148;SDS011;57514;52.164;5.282;2024-01-30T08:34:08;14.90;;;5.85;;
70148;SDS011;57514;52.164;5.282;2024-01-30T08:36:36;15.30;;;6.97;;
70148;SDS011;57514;52.164;5.282;2024-01-30T08:39:03;12.43;;;5.22;;
70148;SDS011;57514;52.164;5.282;2024-01-30T08:41:32;14.90;;;6.20;;
70148;SDS011;57514;52.164;5.282;2024-01-30T08:43:59;15.90;;;5.78;;
70148;SDS011;57514;52.164;5.282;2024-01-30T08:46:26;11.57;;;4.88;;
70148;SDS011;57514;52.164;5.282;2024-01-30T08:48:54;13.90;;;6.03;;
70148;SDS011;57514;52.164;5.282;2024-01-30T08:51:21;11.00;;;4.38;;
70148;SDS011;57514;52.164;5.282;2024-01-30T08:53:48;11.13;;;4.35;;
70148;SDS011;57514;52.164;5.282;2024-01-30T08:56:15;12.57;;;5.80;;
70148;SDS011;57514;52.164;5.282;2024-01-30T08:58:43;13.90;;;5.55;;
70148;SDS011;57514;52.164;5.282;2024-01-30T09:01:10;16.17;;;5.00;;
70148;SDS011;57514;52.164;5.282;2024-01-30T09:03:37;12.60;;;5.30;;
70148;SDS011;57514;52.164;5.282;2024-01-30T09:06:10;16.88;;;6.13;;
70148;SDS011;57514;52.164;5.282;2024-01-30T09:08:38;13.10;;;5.72;;
70148;SDS011;57514;52.164;5.282;2024-01-30T09:11:09;12.55;;;5.10;;
70148;SDS011;57514;52.164;5.282;2024-01-30T09:13:36;10.95;;;4.78;;
70148;SDS011;57514;52.164;5.282;2024-01-30T09:16:04;13.10;;;6.07;;
70148;SDS011;57514;52.164;5.282;2024-01-30T09:18:31;9.77;;;3.58;;
70148;SDS011;57514;52.164;5.282;2024-01-30T09:20:59;16.90;;;6.78;;
70148;SDS011;57514;52.164;5.282;2024-01-30T09:23:27;13.13;;;5.93;;
70148;SDS011;57514;52.164;5.282;2024-01-30T09:25:54;13.88;;;4.80;;
70148;SDS011;57514;52.164;5.282;2024-01-30T09:28:22;9.90;;;4.20;;
70148;SDS011;57514;52.164;5.282;2024-01-30T09:30:52;14.45;;;5.20;;
70148;SDS011;57514;52.164;5.282;2024-01-30T09:33:20;12.23;;;5.05;;
70148;SDS011;57514;52.164;5.282;2024-01-30T09:35:47;15.05;;;5.93;;
70148;SDS011;57514;52.164;5.282;2024-01-30T09:38:14;11.40;;;4.72;;
70148;SDS011;57514;52.164;5.282;2024-01-30T09:40:41;17.15;;;5.85;;
70148;SDS011;57514;52.164;5.282;2024-01-30T09:43:09;12.45;;;5.35;;
70148;SDS011;57514;52.164;5.282;2024-01-30T09:45:39;12.88;;;5.88;;
70148;SDS011;57514;52.164;5.282;2024-01-30T09:48:08;6.78;;;3.05;;
70148;SDS011;57514;52.164;5.282;2024-01-30T09:50:35;11.35;;;5.03;;
70148;SDS011;57514;52.164;5.282;2024-01-30T09:53:03;17.67;;;6.25;;
70148;SDS011;57514;52.164;5.282;2024-01-30T09:55:31;9.07;;;4.45;;
70148;SDS011;57514;52.164;5.282;2024-01-30T09:57:58;13.57;;;4.85;;
70148;SDS011;57514;52.164;5.282;2024-01-30T10:00:26;11.95;;;5.63;;
70148;SDS011;57514;52.164;5.282;2024-01-30T10:02:54;12.27;;;5.40;;
70148;SDS011;57514;52.164;5.282;2024-01-30T10:05:21;8.77;;;3.88;;
70148;SDS011;57514;52.164;5.282;2024-01-30T10:07:56;10.75;;;4.60;;
70148;SDS011;57514;52.164;5.282;2024-01-30T10:10:24;10.80;;;4.78;;
70148;SDS011;57514;52.164;5.282;2024-01-30T10:12:51;10.13;;;4.32;;
70148;SDS011;57514;52.164;5.282;2024-01-30T10:15:18;13.25;;;5.43;;
70148;SDS011;57514;52.164;5.282;2024-01-30T10:17:45;14.15;;;5.70;;
70148;SDS011;57514;52.164;5.282;2024-01-30T10:20:13;13.77;;;4.93;;
70148;SDS011;57514;52.164;5.282;2024-01-30T10:22:40;16.45;;;5.53;;
70148;SDS011;57514;52.164;5.282;2024-01-30T10:25:12;10.27;;;3.92;;
70148;SDS011;57514;52.164;5.282;2024-01-30T10:27:39;13.55;;;5.22;;
70148;SDS011;57514;52.164;5.282;2024-01-30T10:30:07;15.25;;;5.30;;
70148;SDS011;57514;52.164;5.282;2024-01-30T10:32:35;13.45;;;5.60;;
70148;SDS011;57514;52.164;5.282;2024-01-30T10:35:02;12.65;;;4.93;;
70148;SDS011;57514;52.164;5.282;2024-01-30T10:37:30;14.13;;;5.97;;
70148;SDS011;57514;52.164;5.282;2024-01-30T10:40:02;13.75;;;6.53;;
70148;SDS011;57514;52.164;5.282;2024-01-30T10:42:32;12.27;;;5.18;;
70148;SDS011;57514;52.164;5.282;2024-01-30T10:45:02;16.35;;;6.10;;
70148;SDS011;57514;52.164;5.282;2024-01-30T10:47:30;11.45;;;4.85;;
70148;SDS011;57514;52.164;5.282;2024-01-30T10:50:00;15.02;;;5.70;;
70148;SDS011;57514;52.164;5.282;2024-01-30T10:52:28;14.20;;;4.97;;
70148;SDS011;57514;52.164;5.282;2024-01-30T10:54:56;6.82;;;3.05;;
70148;SDS011;57514;52.164;5.282;2024-01-30T10:57:23;11.43;;;5.03;;
70148;SDS011;57514;52.164;5.282;2024-01-30T10:59:52;15.45;;;5.75;;
70148;SDS011;57514;52.164;5.282;2024-01-30T11:02:20;13.63;;;6.22;;
70148;SDS011;57514;52.164;5.282;2024-01-30T11:04:50;13.07;;;5.72;;
70148;SDS011;57514;52.164;5.282;2024-01-30T11:07:28;12.18;;;4.75;;
70148;SDS011;57514;52.164;5.282;2024-01-30T11:12:31;12.48;;;5.78;;
70148;SDS011;57514;52.164;5.282;2024-01-30T11:20:15;11.82;;;5.03;;
70148;SDS011;57514;52.164;5.282;2024-01-30T11:22:44;11.05;;;4.80;;
70148;SDS011;57514;52.164;5.282;2024-01-30T11:25:13;12.57;;;4.30;;
70148;SDS011;57514;52.164;5.282;2024-01-30T11:27:41;11.52;;;4.47;;
70148;SDS011;57514;52.164;5.282;2024-01-30T11:30:09;6.95;;;2.90;;
70148;SDS011;57514;52.164;5.282;2024-01-30T11:32:36;8.18;;;3.40;;
70148;SDS011;57514;52.164;5.282;2024-01-30T11:35:04;10.38;;;2.75;;
70148;SDS011;57514;52.164;5.282;2024-01-30T11:37:37;8.38;;;2.55;;
70148;SDS011;57514;52.164;5.282;2024-01-30T11:40:05;7.95;;;2.72;;
70148;SDS011;57514;52.164;5.282;2024-01-30T11:42:33;7.07;;;2.72;;
70148;SDS011;57514;52.164;5.282;2024-01-30T11:45:01;5.80;;;2.10;;
70148;SDS011;57514;52.164;5.282;2024-01-30T11:47:29;8.45;;;2.67;;
70148;SDS011;57514;52.164;5.282;2024-01-30T11:49:57;6.50;;;2.22;;
70148;SDS011;57514;52.164;5.282;2024-01-30T11:52:26;6.47;;;2.15;;
70148;SDS011;57514;52.164;5.282;2024-01-30T11:54:54;6.05;;;2.35;;
70148;SDS011;57514;52.164;5.282;2024-01-30T11:57:21;7.63;;;2.15;;
70148;SDS011;57514;52.164;5.282;2024-01-30T11:59:48;5.68;;;2.05;;
70148;SDS011;57514;52.164;5.282;2024-01-30T12:02:16;6.28;;;2.28;;
70148;SDS011;57514;52.164;5.282;2024-01-30T12:04:44;8.77;;;2.92;;
70148;SDS011;57514;52.164;5.282;2024-01-30T12:07:11;7.78;;;2.60;;
70148;SDS011;57514;52.164;5.282;2024-01-30T12:09:42;11.68;;;3.60;;
70148;SDS011;57514;52.164;5.282;2024-01-30T12:12:09;5.05;;;1.73;;
70148;SDS011;57514;52.164;5.282;2024-01-30T12:14:39;6.82;;;2.13;;
70148;SDS011;57514;52.164;5.282;2024-01-30T12:17:06;4.50;;;1.73;;
70148;SDS011;57514;52.164;5.282;2024-01-30T12:19:34;6.70;;;1.90;;
70148;SDS011;57514;52.164;5.282;2024-01-30T12:22:02;6.75;;;1.90;;
70148;SDS011;57514;52.164;5.282;2024-01-30T12:24:29;7.07;;;1.90;;
70148;SDS011;57514;52.164;5.282;2024-01-30T12:26:57;5.10;;;1.95;;
70148;SDS011;57514;52.164;5.282;2024-01-30T12:29:25;7.00;;;1.63;;
70148;SDS011;57514;52.164;5.282;2024-01-30T12:31:58;4.38;;;1.20;;
70148;SDS011;57514;52.164;5.282;2024-01-30T12:34:26;6.65;;;1.70;;
70148;SDS011;57514;52.164;5.282;2024-01-30T12:36:56;9.15;;;1.98;;
70148;SDS011;57514;52.164;5.282;2024-01-30T12:39:24;6.03;;;1.90;;
70148;SDS011;57514;52.164;5.282;2024-01-30T12:41:52;6.25;;;1.73;;
70148;SDS011;57514;52.164;5.282;2024-01-30T12:44:19;7.72;;;2.20;;
70148;SDS011;57514;52.164;5.282;2024-01-30T12:49:17;6.75;;;2.33;;
70148;SDS011;57514;52.164;5.282;2024-01-30T12:51:45;6.50;;;1.77;;
70148;SDS011;57514;52.164;5.282;2024-01-30T12:54:12;5.05;;;1.80;;
70148;SDS011;57514;52.164;5.282;2024-01-30T12:56:40;5.70;;;1.70;;
70148;SDS011;57514;52.164;5.282;2024-01-30T12:59:07;3.80;;;1.80;;
70148;SDS011;57514;52.164;5.282;2024-01-30T13:01:34;4.07;;;1.65;;
70148;SDS011;57514;52.164;5.282;2024-01-30T13:04:02;4.90;;;1.85;;
70148;SDS011;57514;52.164;5.282;2024-01-30T13:06:30;3.55;;;1.52;;
70148;SDS011;57514;52.164;5.282;2024-01-30T13:08:57;1.77;;;1.15;;
70148;SDS011;57514;52.164;5.282;2024-01-30T13:11:24;4.22;;;1.67;;
70148;SDS011;57514;52.164;5.282;2024-01-30T13:13:52;2.08;;;0.93;;
70148;SDS011;57514;52.164;5.282;2024-01-30T13:16:19;3.95;;;1.10;;
70148;SDS011;57514;52.164;5.282;2024-01-30T13:18:47;4.47;;;1.30;;
70148;SDS011;57514;52.164;5.282;2024-01-30T13:21:15;5.57;;;1.15;;
70148;SDS011;57514;52.164;5.282;2024-01-30T13:23:42;4.57;;;1.08;;
70148;SDS011;57514;52.164;5.282;2024-01-30T13:26:11;1.80;;;0.70;;
70148;SDS011;57514;52.164;5.282;2024-01-30T13:28:38;3.95;;;1.33;;
70148;SDS011;57514;52.164;5.282;2024-01-30T13:31:06;3.35;;;1.42;;
70148;SDS011;57514;52.164;5.282;2024-01-30T13:33:34;7.07;;;1.67;;
70148;SDS011;57514;52.164;5.282;2024-01-30T13:36:02;4.20;;;1.92;;
70148;SDS011;57514;52.164;5.282;2024-01-30T13:38:29;3.92;;;1.65;;
70148;SDS011;57514;52.164;5.282;2024-01-30T13:40:56;7.07;;;2.13;;
70148;SDS011;57514;52.164;5.282;2024-01-30T13:43:24;5.20;;;1.98;;
70148;SDS011;57514;52.164;5.282;2024-01-30T13:45:52;10.63;;;2.50;;
70148;SDS011;57514;52.164;5.282;2024-01-30T13:48:19;5.68;;;2.03;;
70148;SDS011;57514;52.164;5.282;2024-01-30T13:50:48;4.53;;;1.63;;
70148;SDS011;57514;52.164;5.282;2024-01-30T13:53:16;4.95;;;1.98;;
70148;SDS011;57514;52.164;5.282;2024-01-30T13:55:44;7.50;;;2.13;;
70148;SDS011;57514;52.164;5.282;2024-01-30T13:58:11;8.13;;;2.60;;
70148;SDS011;57514;52.164;5.282;2024-01-30T14:00:38;6.72;;;2.22;;
70148;SDS011;57514;52.164;5.282;2024-01-30T14:03:06;8.85;;;2.40;;
70148;SDS011;57514;52.164;5.282;2024-01-30T14:05:33;6.10;;;2.17;;
70148;SDS011;57514;52.164;5.282;2024-01-30T14:08:01;7.07;;;2.30;;
70148;SDS011;57514;52.164;5.282;2024-01-30T14:10:28;5.03;;;2.35;;
70148;SDS011;57514;52.164;5.282;2024-01-30T14:12:56;6.18;;;2.33;;
70148;SDS011;57514;52.164;5.282;2024-01-30T14:15:24;7.72;;;2.75;;
70148;SDS011;57514;52.164;5.282;2024-01-30T14:17:55;8.20;;;3.58;;
70148;SDS011;57514;52.164;5.282;2024-01-30T14:20:24;7.10;;;2.28;;
70148;SDS011;57514;52.164;5.282;2024-01-30T14:22:51;5.82;;;2.33;;
70148;SDS011;57514;52.164;5.282;2024-01-30T14:25:21;5.75;;;2.38;;
70148;SDS011;57514;52.164;5.282;2024-01-30T14:27:49;6.95;;;2.10;;
70148;SDS011;57514;52.164;5.282;2024-01-30T14:30:16;6.72;;;2.33;;
70148;SDS011;57514;52.164;5.282;2024-01-30T14:32:44;6.20;;;2.00;;
70148;SDS011;57514;52.164;5.282;2024-01-30T14:35:11;7.20;;;2.42;;
70148;SDS011;57514;52.164;5.282;2024-01-30T14:37:38;7.28;;;2.28;;
70148;SDS011;57514;52.164;5.282;2024-01-30T14:40:06;8.68;;;2.88;;
70148;SDS011;57514;52.164;5.282;2024-01-30T14:42:34;6.72;;;2.58;;
70148;SDS011;57514;52.164;5.282;2024-01-30T14:45:03;4.32;;;1.95;;
70148;SDS011;57514;52.164;5.282;2024-01-30T14:47:31;5.85;;;2.83;;
70148;SDS011;57514;52.164;5.282;2024-01-30T14:49:58;7.03;;;2.42;;
70148;SDS011;57514;52.164;5.282;2024-01-30T14:52:25;8.30;;;2.60;;